sensor_id;sensor_type;location;lat;lon;timestamp;pressure;altitude;pressure_sealevel;temperature;humidity
18569;BME280;14780;48.316;-1.050;2022-08-21T00:02:35;99254.31;;;25.77;43.98
18569;BME280;14780;48.316;-1.050;2022-08-21T00:05:21;99259.00;;;25.77;44.02
18569;BME280;14780;48.316;-1.050;2022-08-21T00:08:06;99259.00;;;25.77;43.97
18569;BME280;14780;48.316;-1.050;2022-08-21T00:10:51;99256.78;;;25.74;44.08
18569;BME280;14780;48.316;-1.050;2022-08-21T00:13:36;99256.78;;;25.74;43.97
18569;BME280;14780;48.316;-1.050;2022-08-21T00:16:21;99245.03;;;25.73;44.18
18569;BME280;14780;48.316;-1.050;2022-08-21T00:19:06;99239.81;;;25.72;44.37
18569;BME280;14780;48.316;-1.050;2022-08-21T00:21:53;99237.34;;;25.70;44.26
18569;BME280;14780;48.316;-1.050;2022-08-21T00:24:38;99229.44;;;25.69;44.37
18569;BME280;14780;48.316;-1.050;2022-08-21T00:27:22;99228.59;;;25.68;44.40
18569;BME280;14780;48.316;-1.050;2022-08-21T00:30:08;99239.03;;;25.66;44.61
18569;BME280;14780;48.316;-1.050;2022-08-21T00:32:54;99247.25;;;25.66;44.46
18569;BME280;14780;48.316;-1.050;2022-08-21T00:35:41;99245.63;;;25.65;44.72
18569;BME280;14780;48.316;-1.050;2022-08-21T00:38:27;99243.41;;;25.62;44.41
18569;BME280;14780;48.316;-1.050;2022-08-21T00:41:11;99243.94;;;25.64;44.59
18569;BME280;14780;48.316;-1.050;2022-08-21T00:43:57;99239.31;;;25.60;44.69
18569;BME280;14780;48.316;-1.050;2022-08-21T00:46:42;99243.16;;;25.59;44.80
18569;BME280;14780;48.316;-1.050;2022-08-21T00:49:27;99246.72;;;25.59;44.77
18569;BME280;14780;48.316;-1.050;2022-08-21T00:52:21;99249.47;;;25.59;44.70
18569;BME280;14780;48.316;-1.050;2022-08-21T00:55:09;99256.06;;;25.58;44.82
18569;BME280;14780;48.316;-1.050;2022-08-21T00:57:56;99250.84;;;25.57;44.95
18569;BME280;14780;48.316;-1.050;2022-08-21T01:00:45;99248.38;;;25.55;44.93
18569;BME280;14780;48.316;-1.050;2022-08-21T01:03:30;99235.25;;;25.52;44.90
18569;BME280;14780;48.316;-1.050;2022-08-21T01:06:15;99242.38;;;25.53;44.98
18569;BME280;14780;48.316;-1.050;2022-08-21T01:09:00;99239.91;;;25.52;45.03
18569;BME280;14780;48.316;-1.050;2022-08-21T01:11:45;99243.47;;;25.52;45.11
18569;BME280;14780;48.316;-1.050;2022-08-21T01:14:31;99240.47;;;25.49;45.02
18569;BME280;14780;48.316;-1.050;2022-08-21T01:17:17;99235.78;;;25.49;45.19
18569;BME280;14780;48.316;-1.050;2022-08-21T01:20:06;99229.25;;;25.50;45.00
18569;BME280;14780;48.316;-1.050;2022-08-21T01:22:51;99229.78;;;25.47;45.31
18569;BME280;14780;48.316;-1.050;2022-08-21T01:25:36;99228.97;;;25.47;45.25
18569;BME280;14780;48.316;-1.050;2022-08-21T01:28:22;99227.59;;;25.44;45.28
18569;BME280;14780;48.316;-1.050;2022-08-21T01:31:08;99222.94;;;25.45;45.32
18569;BME280;14780;48.316;-1.050;2022-08-21T01:33:56;99203.22;;;25.43;45.30
18569;BME280;14780;48.316;-1.050;2022-08-21T01:36:41;99201.59;;;25.42;45.33
18569;BME280;14780;48.316;-1.050;2022-08-21T01:39:26;99195.28;;;25.41;45.48
18569;BME280;14780;48.316;-1.050;2022-08-21T01:42:11;99200.75;;;25.41;45.37
18569;BME280;14780;48.316;-1.050;2022-08-21T01:44:56;99202.13;;;25.39;45.55
18569;BME280;14780;48.316;-1.050;2022-08-21T01:47:41;99209.28;;;25.40;45.57
18569;BME280;14780;48.316;-1.050;2022-08-21T01:50:27;99208.44;;;25.39;45.63
18569;BME280;14780;48.316;-1.050;2022-08-21T01:53:11;99208.44;;;25.39;45.72
18569;BME280;14780;48.316;-1.050;2022-08-21T01:55:56;99212.28;;;25.38;45.73
18569;BME280;14780;48.316;-1.050;2022-08-21T01:58:43;99201.88;;;25.35;45.82
18569;BME280;14780;48.316;-1.050;2022-08-21T02:01:28;99200.22;;;25.34;45.64
18569;BME280;14780;48.316;-1.050;2022-08-21T02:04:13;99208.75;;;25.33;45.74
18569;BME280;14780;48.316;-1.050;2022-08-21T02:06:59;99209.03;;;25.31;45.85
18569;BME280;14780;48.316;-1.050;2022-08-21T02:09:44;99216.97;;;25.28;45.93
18569;BME280;14780;48.316;-1.050;2022-08-21T02:12:28;99212.88;;;25.25;45.87
18569;BME280;14780;48.316;-1.050;2022-08-21T02:15:13;99219.44;;;25.24;45.84
18569;BME280;14780;48.316;-1.050;2022-08-21T02:18:01;99226.81;;;25.24;46.00
18569;BME280;14780;48.316;-1.050;2022-08-21T02:20:48;99224.38;;;25.22;45.98
18569;BME280;14780;48.316;-1.050;2022-08-21T02:23:34;99212.56;;;25.22;46.14
18569;BME280;14780;48.316;-1.050;2022-08-21T02:26:18;99215.56;;;25.20;46.07
18569;BME280;14780;48.316;-1.050;2022-08-21T02:29:05;99208.75;;;25.18;46.00
18569;BME280;14780;48.316;-1.050;2022-08-21T02:31:50;99215.59;;;25.15;46.12
18569;BME280;14780;48.316;-1.050;2022-08-21T02:34:35;99208.75;;;25.13;46.30
18569;BME280;14780;48.316;-1.050;2022-08-21T02:37:20;99203.03;;;25.09;46.08
18569;BME280;14780;48.316;-1.050;2022-08-21T02:40:05;99193.72;;;25.10;46.27
18569;BME280;14780;48.316;-1.050;2022-08-21T02:42:50;99207.66;;;25.09;46.25
18569;BME280;14780;48.316;-1.050;2022-08-21T02:45:35;99220.00;;;25.06;46.24
18569;BME280;14780;48.316;-1.050;2022-08-21T02:48:23;99217.25;;;25.06;46.27
18569;BME280;14780;48.316;-1.050;2022-08-21T02:51:12;99219.44;;;25.04;46.28
18569;BME280;14780;48.316;-1.050;2022-08-21T02:53:57;99217.81;;;25.03;46.27
18569;BME280;14780;48.316;-1.050;2022-08-21T02:56:42;99225.19;;;25.03;46.38
18569;BME280;14780;48.316;-1.050;2022-08-21T02:59:26;99215.66;;;25.00;46.47
18569;BME280;14780;48.316;-1.050;2022-08-21T03:02:11;99225.22;;;24.98;46.45
18569;BME280;14780;48.316;-1.050;2022-08-21T03:04:55;99222.75;;;24.96;46.47
18569;BME280;14780;48.316;-1.050;2022-08-21T03:07:42;99224.66;;;24.96;46.50
18569;BME280;14780;48.316;-1.050;2022-08-21T03:10:28;99221.66;;;24.92;46.55
18569;BME280;14780;48.316;-1.050;2022-08-21T03:13:14;99226.06;;;24.93;46.64
18569;BME280;14780;48.316;-1.050;2022-08-21T03:15:59;99227.13;;;24.92;46.50
18569;BME280;14780;48.316;-1.050;2022-08-21T03:18:45;99213.44;;;24.92;46.55
18569;BME280;14780;48.316;-1.050;2022-08-21T03:21:30;99218.09;;;24.92;46.57
18569;BME280;14780;48.316;-1.050;2022-08-21T03:24:33;99200.31;;;24.89;46.74
18569;BME280;14780;48.316;-1.050;2022-08-21T03:27:18;99197.03;;;24.87;46.65
18569;BME280;14780;48.316;-1.050;2022-08-21T03:30:05;99199.78;;;24.87;46.73
18569;BME280;14780;48.316;-1.050;2022-08-21T03:32:50;99193.78;;;24.85;46.84
18569;BME280;14780;48.316;-1.050;2022-08-21T03:35:35;99191.31;;;24.84;46.89
18569;BME280;14780;48.316;-1.050;2022-08-21T03:38:19;99186.09;;;24.82;46.97
18569;BME280;14780;48.316;-1.050;2022-08-21T03:41:05;99199.25;;;24.80;46.80
18569;BME280;14780;48.316;-1.050;2022-08-21T03:43:49;99196.50;;;24.80;47.01
18569;BME280;14780;48.316;-1.050;2022-08-21T03:46:34;99201.44;;;24.78;46.90
18569;BME280;14780;48.316;-1.050;2022-08-21T03:49:19;99206.09;;;24.78;46.85
18569;BME280;14780;48.316;-1.050;2022-08-21T03:52:04;99202.50;;;24.77;46.91
18569;BME280;14780;48.316;-1.050;2022-08-21T03:54:49;99198.16;;;24.76;46.92
18569;BME280;14780;48.316;-1.050;2022-08-21T03:57:34;99187.75;;;24.73;46.99
18569;BME280;14780;48.316;-1.050;2022-08-21T04:00:20;99198.72;;;24.73;47.15
18569;BME280;14780;48.316;-1.050;2022-08-21T04:03:05;99205.28;;;24.72;47.11
18569;BME280;14780;48.316;-1.050;2022-08-21T04:05:51;99197.06;;;24.72;47.07
18569;BME280;14780;48.316;-1.050;2022-08-21T04:08:35;99200.34;;;24.69;47.21
18569;BME280;14780;48.316;-1.050;2022-08-21T04:11:20;99200.63;;;24.68;47.28
18569;BME280;14780;48.316;-1.050;2022-08-21T04:14:05;99191.59;;;24.67;47.21
18569;BME280;14780;48.316;-1.050;2022-08-21T04:16:50;99192.69;;;24.66;47.14
18569;BME280;14780;48.316;-1.050;2022-08-21T04:19:34;99191.84;;;24.66;47.30
18569;BME280;14780;48.316;-1.050;2022-08-21T04:22:19;99196.53;;;24.65;47.33
18569;BME280;14780;48.316;-1.050;2022-08-21T04:25:04;99193.22;;;24.63;47.25
18569;BME280;14780;48.316;-1.050;2022-08-21T04:27:49;99186.94;;;24.63;47.43
18569;BME280;14780;48.316;-1.050;2022-08-21T04:30:35;99188.31;;;24.60;47.30
18569;BME280;14780;48.316;-1.050;2022-08-21T04:33:21;99193.78;;;24.60;47.46
18569;BME280;14780;48.316;-1.050;2022-08-21T04:36:06;99197.34;;;24.61;47.32
18569;BME280;14780;48.316;-1.050;2022-08-21T04:38:51;99211.28;;;24.59;47.50
18569;BME280;14780;48.316;-1.050;2022-08-21T04:41:36;99208.81;;;24.58;47.54
18569;BME280;14780;48.316;-1.050;2022-08-21T04:44:20;99210.75;;;24.57;47.54
18569;BME280;14780;48.316;-1.050;2022-08-21T04:47:05;99208.28;;;24.56;47.62
18569;BME280;14780;48.316;-1.050;2022-08-21T04:49:50;99209.09;;;24.56;47.53
18569;BME280;14780;48.316;-1.050;2022-08-21T04:52:35;99209.09;;;24.56;47.47
18569;BME280;14780;48.316;-1.050;2022-08-21T04:55:20;99200.31;;;24.54;47.52
18569;BME280;14780;48.316;-1.050;2022-08-21T04:58:07;99206.88;;;24.53;47.71
18569;BME280;14780;48.316;-1.050;2022-08-21T05:00:57;99214.00;;;24.54;47.45
18569;BME280;14780;48.316;-1.050;2022-08-21T05:03:42;99222.50;;;24.53;47.68
18569;BME280;14780;48.316;-1.050;2022-08-21T05:06:31;99221.66;;;24.52;47.54
18569;BME280;14780;48.316;-1.050;2022-08-21T05:09:18;99225.50;;;24.51;47.49
18569;BME280;14780;48.316;-1.050;2022-08-21T05:12:04;99214.81;;;24.50;47.78
18569;BME280;14780;48.316;-1.050;2022-08-21T05:14:49;99219.47;;;24.49;47.82
18569;BME280;14780;48.316;-1.050;2022-08-21T05:17:33;99219.47;;;24.49;47.64
18569;BME280;14780;48.316;-1.050;2022-08-21T05:20:18;99222.22;;;24.49;47.81
18569;BME280;14780;48.316;-1.050;2022-08-21T05:23:10;99221.13;;;24.50;47.77
18569;BME280;14780;48.316;-1.050;2022-08-21T05:25:56;99219.75;;;24.48;47.73
18569;BME280;14780;48.316;-1.050;2022-08-21T05:28:40;99224.13;;;24.49;47.87
18569;BME280;14780;48.316;-1.050;2022-08-21T05:31:25;99227.94;;;24.48;47.82
18569;BME280;14780;48.316;-1.050;2022-08-21T05:34:11;99236.41;;;24.46;47.85
18569;BME280;14780;48.316;-1.050;2022-08-21T05:36:56;99226.59;;;24.45;47.90
18569;BME280;14780;48.316;-1.050;2022-08-21T05:39:41;99222.22;;;24.44;47.80
18569;BME280;14780;48.316;-1.050;2022-08-21T05:42:26;99228.47;;;24.45;47.97
18569;BME280;14780;48.316;-1.050;2022-08-21T05:45:12;99227.69;;;24.44;47.90
18569;BME280;14780;48.316;-1.050;2022-08-21T05:47:57;99229.31;;;24.45;47.93
18569;BME280;14780;48.316;-1.050;2022-08-21T05:50:43;99226.59;;;24.45;47.97
18569;BME280;14780;48.316;-1.050;2022-08-21T05:53:29;99222.75;;;24.46;47.92
18569;BME280;14780;48.316;-1.050;2022-08-21T05:56:14;99229.31;;;24.45;47.94
18569;BME280;14780;48.316;-1.050;2022-08-21T05:58:59;99225.47;;;24.46;47.82
18569;BME280;14780;48.316;-1.050;2022-08-21T06:01:44;99229.06;;;24.47;47.92
18569;BME280;14780;48.316;-1.050;2022-08-21T06:04:30;99234.53;;;24.47;48.08
18569;BME280;14780;48.316;-1.050;2022-08-21T06:07:15;99238.63;;;24.49;47.98
18569;BME280;14780;48.316;-1.050;2022-08-21T06:09:59;99244.63;;;24.51;47.98
18569;BME280;14780;48.316;-1.050;2022-08-21T06:12:44;99246.28;;;24.52;47.87
18569;BME280;14780;48.316;-1.050;2022-08-21T06:15:29;99245.44;;;24.52;47.83
18569;BME280;14780;48.316;-1.050;2022-08-21T06:18:15;99246.84;;;24.49;48.04
18569;BME280;14780;48.316;-1.050;2022-08-21T06:20:59;99234.22;;;24.48;48.00
18569;BME280;14780;48.316;-1.050;2022-08-21T06:23:45;99238.06;;;24.47;48.02
18569;BME280;14780;48.316;-1.050;2022-08-21T06:26:30;99240.78;;;24.47;48.01
18569;BME280;14780;48.316;-1.050;2022-08-21T06:29:15;99241.88;;;24.46;47.93
18569;BME280;14780;48.316;-1.050;2022-08-21T06:32:02;99239.41;;;24.45;47.86
18569;BME280;14780;48.316;-1.050;2022-08-21T06:34:47;99248.47;;;24.45;47.84
18569;BME280;14780;48.316;-1.050;2022-08-21T06:37:32;99248.72;;;24.44;47.94
18569;BME280;14780;48.316;-1.050;2022-08-21T06:40:17;99238.34;;;24.46;48.02
18569;BME280;14780;48.316;-1.050;2022-08-21T06:43:13;99230.44;;;24.49;48.02
18569;BME280;14780;48.316;-1.050;2022-08-21T06:45:58;99234.22;;;24.48;47.91
18569;BME280;14780;48.316;-1.050;2022-08-21T06:48:43;99224.97;;;24.49;47.91
18569;BME280;14780;48.316;-1.050;2022-08-21T06:51:27;99236.44;;;24.51;47.93
18569;BME280;14780;48.316;-1.050;2022-08-21T06:54:13;99227.13;;;24.52;47.92
18569;BME280;14780;48.316;-1.050;2022-08-21T06:56:57;99222.75;;;24.51;47.87
18569;BME280;14780;48.316;-1.050;2022-08-21T06:59:42;99235.34;;;24.52;47.88
18569;BME280;14780;48.316;-1.050;2022-08-21T07:02:27;99243.28;;;24.54;47.87
18569;BME280;14780;48.316;-1.050;2022-08-21T07:05:12;99241.34;;;24.54;47.70
18569;BME280;14780;48.316;-1.050;2022-08-21T07:07:56;99233.97;;;24.55;47.73
18569;BME280;14780;48.316;-1.050;2022-08-21T07:10:42;99240.28;;;24.55;47.90
18569;BME280;14780;48.316;-1.050;2022-08-21T07:13:27;99238.13;;;24.57;47.85
18569;BME280;14780;48.316;-1.050;2022-08-21T07:16:12;99243.59;;;24.57;47.79
18569;BME280;14780;48.316;-1.050;2022-08-21T07:18:57;99239.75;;;24.58;47.74
18569;BME280;14780;48.316;-1.050;2022-08-21T07:21:42;99242.19;;;24.60;47.85
18569;BME280;14780;48.316;-1.050;2022-08-21T07:24:27;99237.56;;;24.60;47.79
18569;BME280;14780;48.316;-1.050;2022-08-21T07:27:12;99242.47;;;24.63;47.69
18569;BME280;14780;48.316;-1.050;2022-08-21T07:29:57;99248.25;;;24.62;47.76
18569;BME280;14780;48.316;-1.050;2022-08-21T07:32:42;99258.88;;;24.63;47.67
18569;BME280;14780;48.316;-1.050;2022-08-21T07:35:27;99253.41;;;24.63;47.77
18569;BME280;14780;48.316;-1.050;2022-08-21T07:38:12;99253.97;;;24.65;47.72
18569;BME280;14780;48.316;-1.050;2022-08-21T07:40:57;99246.88;;;24.64;47.62
18569;BME280;14780;48.316;-1.050;2022-08-21T07:43:44;99242.47;;;24.63;47.50
18569;BME280;14780;48.316;-1.050;2022-08-21T07:46:29;99241.38;;;24.59;47.46
18569;BME280;14780;48.316;-1.050;2022-08-21T07:49:14;99243.59;;;24.57;47.55
18569;BME280;14780;48.316;-1.050;2022-08-21T07:51:59;99241.91;;;24.56;47.47
18569;BME280;14780;48.316;-1.050;2022-08-21T07:54:44;99241.91;;;24.56;47.58
18569;BME280;14780;48.316;-1.050;2022-08-21T07:57:28;99240.03;;;24.57;47.39
18569;BME280;14780;48.316;-1.050;2022-08-21T08:00:17;99241.38;;;24.59;47.43
18569;BME280;14780;48.316;-1.050;2022-08-21T08:03:04;99229.88;;;24.62;47.37
18569;BME280;14780;48.316;-1.050;2022-08-21T08:05:49;99228.78;;;24.63;47.50
18569;BME280;14780;48.316;-1.050;2022-08-21T08:08:33;99225.78;;;24.65;47.43
18569;BME280;14780;48.316;-1.050;2022-08-21T08:11:18;99226.06;;;24.63;47.53
18569;BME280;14780;48.316;-1.050;2022-08-21T08:14:03;99223.63;;;24.62;47.53
18569;BME280;14780;48.316;-1.050;2022-08-21T08:16:48;99214.56;;;24.61;47.51
18569;BME280;14780;48.316;-1.050;2022-08-21T08:19:33;99221.69;;;24.62;47.42
18569;BME280;14780;48.316;-1.050;2022-08-21T08:22:21;99204.16;;;24.63;47.49
18569;BME280;14780;48.316;-1.050;2022-08-21T08:25:09;99218.16;;;24.62;47.44
18569;BME280;14780;48.316;-1.050;2022-08-21T08:27:54;99208.81;;;24.58;47.40
18569;BME280;14780;48.316;-1.050;2022-08-21T08:30:39;99203.09;;;24.59;47.52
18569;BME280;14780;48.316;-1.050;2022-08-21T08:33:24;99214.84;;;24.60;47.29
18569;BME280;14780;48.316;-1.050;2022-08-21T08:36:17;99204.47;;;24.62;47.33
18569;BME280;14780;48.316;-1.050;2022-08-21T08:39:04;99223.63;;;24.62;47.38
18569;BME280;14780;48.316;-1.050;2022-08-21T08:42:09;99215.66;;;24.70;47.49
18569;BME280;14780;48.316;-1.050;2022-08-21T08:45:16;99214.59;;;24.71;47.35
18569;BME280;14780;48.316;-1.050;2022-08-21T08:48:05;99216.75;;;24.74;47.29
18569;BME280;14780;48.316;-1.050;2022-08-21T08:50:56;99227.97;;;24.78;47.36
18569;BME280;14780;48.316;-1.050;2022-08-21T08:53:52;99229.88;;;24.82;47.32
18569;BME280;14780;48.316;-1.050;2022-08-21T08:56:41;99228.81;;;24.78;47.26
18569;BME280;14780;48.316;-1.050;2022-08-21T08:59:32;99229.09;;;24.82;47.41
18569;BME280;14780;48.316;-1.050;2022-08-21T09:02:20;99227.69;;;24.84;47.37
18569;BME280;14780;48.316;-1.050;2022-08-21T09:05:08;99229.34;;;24.85;47.42
18569;BME280;14780;48.316;-1.050;2022-08-21T09:21:18;99238.91;;;24.98;47.30
18569;BME280;14780;48.316;-1.050;2022-08-21T09:27:10;99240.81;;;25.02;47.37
18569;BME280;14780;48.316;-1.050;2022-08-21T09:29:56;99229.31;;;25.05;47.39
18569;BME280;14780;48.316;-1.050;2022-08-21T09:32:42;99220.56;;;25.03;47.76
18569;BME280;14780;48.316;-1.050;2022-08-21T09:35:27;99214.50;;;25.06;48.84
18569;BME280;14780;48.316;-1.050;2022-08-21T09:38:30;99214.25;;;25.18;47.72
18569;BME280;14780;48.316;-1.050;2022-08-21T09:41:31;99212.03;;;25.25;47.48
18569;BME280;14780;48.316;-1.050;2022-08-21T09:44:28;99214.25;;;25.23;47.32
18569;BME280;14780;48.316;-1.050;2022-08-21T09:47:17;99222.44;;;25.28;47.48
18569;BME280;14780;48.316;-1.050;2022-08-21T09:50:12;99222.44;;;25.33;47.24
18569;BME280;14780;48.316;-1.050;2022-08-21T09:52:59;99223.50;;;25.32;47.24
18569;BME280;14780;48.316;-1.050;2022-08-21T09:56:05;99236.69;;;25.30;47.04
18569;BME280;14780;48.316;-1.050;2022-08-21T09:59:33;99239.69;;;25.28;47.29
18569;BME280;14780;48.316;-1.050;2022-08-21T10:02:26;99240.25;;;25.30;47.19
18569;BME280;14780;48.316;-1.050;2022-08-21T10:05:24;99233.94;;;25.35;47.18
18569;BME280;14780;48.316;-1.050;2022-08-21T10:08:18;99238.03;;;25.37;47.25
18569;BME280;14780;48.316;-1.050;2022-08-21T10:20:29;99233.03;;;25.54;47.08
18569;BME280;14780;48.316;-1.050;2022-08-21T10:23:29;99231.09;;;25.60;46.95
18569;BME280;14780;48.316;-1.050;2022-08-21T10:26:29;99233.00;;;25.64;46.65
18569;BME280;14780;48.316;-1.050;2022-08-21T10:29:35;99245.63;;;25.60;46.94
18569;BME280;14780;48.316;-1.050;2022-08-21T10:45:02;99234.66;;;25.65;47.10
18569;BME280;14780;48.316;-1.050;2022-08-21T10:47:55;99238.44;;;25.74;46.91
18569;BME280;14780;48.316;-1.050;2022-08-21T10:51:12;99235.38;;;25.86;46.56
18569;BME280;14780;48.316;-1.050;2022-08-21T10:54:20;99235.09;;;25.87;46.53
18569;BME280;14780;48.316;-1.050;2022-08-21T10:57:25;99235.66;;;25.89;46.66
18569;BME280;14780;48.316;-1.050;2022-08-21T11:00:23;99240.31;;;25.89;46.58
18569;BME280;14780;48.316;-1.050;2022-08-21T11:03:16;99244.13;;;25.88;46.51
18569;BME280;14780;48.316;-1.050;2022-08-21T11:09:11;99238.94;;;25.91;46.47
18569;BME280;14780;48.316;-1.050;2022-08-21T11:12:05;99238.38;;;25.94;46.51
18569;BME280;14780;48.316;-1.050;2022-08-21T11:18:22;99236.69;;;25.98;46.43
18569;BME280;14780;48.316;-1.050;2022-08-21T11:21:26;99243.88;;;25.94;46.47
18569;BME280;14780;48.316;-1.050;2022-08-21T11:30:10;99250.16;;;25.95;46.23
18569;BME280;14780;48.316;-1.050;2022-08-21T11:36:06;99243.03;;;25.94;46.43
18569;BME280;14780;48.316;-1.050;2022-08-21T11:42:07;99246.00;;;26.02;46.13
18569;BME280;14780;48.316;-1.050;2022-08-21T11:51:17;99248.69;;;26.12;46.13
18569;BME280;14780;48.316;-1.050;2022-08-21T11:54:09;99251.44;;;26.12;46.02
18569;BME280;14780;48.316;-1.050;2022-08-21T11:57:03;99244.81;;;26.18;45.81
18569;BME280;14780;48.316;-1.050;2022-08-21T12:00:04;99243.97;;;26.23;45.70
18569;BME280;14780;48.316;-1.050;2022-08-21T12:02:55;99245.41;;;26.15;45.84
18569;BME280;14780;48.316;-1.050;2022-08-21T12:05:44;99239.66;;;26.12;45.86
18569;BME280;14780;48.316;-1.050;2022-08-21T12:16:50;99236.97;;;26.02;45.64
18569;BME280;14780;48.316;-1.050;2022-08-21T12:19:35;99231.50;;;25.97;45.86
18569;BME280;14780;48.316;-1.050;2022-08-21T12:22:20;99228.50;;;25.93;45.87
18569;BME280;14780;48.316;-1.050;2022-08-21T12:25:11;99222.22;;;25.93;45.91
18569;BME280;14780;48.316;-1.050;2022-08-21T12:28:11;99226.34;;;25.90;45.87
18569;BME280;14780;48.316;-1.050;2022-08-21T12:30:57;99224.13;;;25.87;46.09
18569;BME280;14780;48.316;-1.050;2022-08-21T12:33:43;99226.88;;;25.87;45.90
18569;BME280;14780;48.316;-1.050;2022-08-21T12:36:54;99219.75;;;25.91;46.04
18569;BME280;14780;48.316;-1.050;2022-08-21T12:39:44;99219.75;;;25.91;46.05
18569;BME280;14780;48.316;-1.050;2022-08-21T12:42:38;99219.75;;;25.91;45.95
18569;BME280;14780;48.316;-1.050;2022-08-21T12:45:37;99226.34;;;25.90;46.02
18569;BME280;14780;48.316;-1.050;2022-08-21T12:52:00;99226.88;;;25.82;46.04
18569;BME280;14780;48.316;-1.050;2022-08-21T12:54:46;99226.91;;;25.77;46.12
18569;BME280;14780;48.316;-1.050;2022-08-21T12:57:31;99219.00;;;25.76;46.03
18569;BME280;14780;48.316;-1.050;2022-08-21T13:00:22;99227.47;;;25.74;46.27
18569;BME280;14780;48.316;-1.050;2022-08-21T13:03:08;99220.88;;;25.80;45.95
18569;BME280;14780;48.316;-1.050;2022-08-21T13:05:52;99220.63;;;25.72;46.22
18569;BME280;14780;48.316;-1.050;2022-08-21T13:08:38;99213.25;;;25.72;46.11
18569;BME280;14780;48.316;-1.050;2022-08-21T13:11:24;99207.19;;;25.75;46.14
18569;BME280;14780;48.316;-1.050;2022-08-21T13:14:37;99209.34;;;25.83;46.16
18569;BME280;14780;48.316;-1.050;2022-08-21T13:17:24;99210.97;;;25.84;46.06
18569;BME280;14780;48.316;-1.050;2022-08-21T13:20:21;99208.25;;;25.89;46.07
18569;BME280;14780;48.316;-1.050;2022-08-21T13:23:29;99204.13;;;25.87;46.09
18569;BME280;14780;48.316;-1.050;2022-08-21T13:26:20;99201.66;;;25.85;45.94
18569;BME280;14780;48.316;-1.050;2022-08-21T13:29:12;99203.59;;;25.90;45.77
18569;BME280;14780;48.316;-1.050;2022-08-21T13:32:03;99201.97;;;25.79;46.06
18569;BME280;14780;48.316;-1.050;2022-08-21T13:34:49;99200.56;;;25.91;45.89
18569;BME280;14780;48.316;-1.050;2022-08-21T13:37:36;99201.13;;;25.88;45.81
18569;BME280;14780;48.316;-1.050;2022-08-21T13:40:30;99191.25;;;25.87;46.08
18569;BME280;14780;48.316;-1.050;2022-08-21T13:43:19;99203.59;;;25.80;46.11
18569;BME280;14780;48.316;-1.050;2022-08-21T13:46:10;99192.63;;;25.80;46.10
18569;BME280;14780;48.316;-1.050;2022-08-21T13:48:56;99199.22;;;25.84;46.16
18569;BME280;14780;48.316;-1.050;2022-08-21T13:51:44;99206.06;;;25.86;46.14
18569;BME280;14780;48.316;-1.050;2022-08-21T13:54:41;99202.75;;;25.89;45.98
18569;BME280;14780;48.316;-1.050;2022-08-21T13:57:31;99197.81;;;25.86;46.23
18569;BME280;14780;48.316;-1.050;2022-08-21T14:03:07;99213.19;;;25.82;46.21
18569;BME280;14780;48.316;-1.050;2022-08-21T14:05:53;99210.44;;;25.82;46.08
18569;BME280;14780;48.316;-1.050;2022-08-21T14:08:39;99212.63;;;25.85;46.16
18569;BME280;14780;48.316;-1.050;2022-08-21T14:11:33;99207.97;;;25.91;46.23
18569;BME280;14780;48.316;-1.050;2022-08-21T14:14:25;99211.75;;;26.00;45.98
18569;BME280;14780;48.316;-1.050;2022-08-21T14:17:14;99216.72;;;25.98;46.03
18569;BME280;14780;48.316;-1.050;2022-08-21T14:20:26;99217.50;;;25.98;45.92
18569;BME280;14780;48.316;-1.050;2022-08-21T14:23:11;99213.41;;;25.96;45.99
18569;BME280;14780;48.316;-1.050;2022-08-21T14:26:03;99210.38;;;25.97;46.01
18569;BME280;14780;48.316;-1.050;2022-08-21T14:28:49;99198.59;;;25.97;46.08
18569;BME280;14780;48.316;-1.050;2022-08-21T14:31:33;99200.00;;;25.94;46.00
18569;BME280;14780;48.316;-1.050;2022-08-21T14:34:19;99200.56;;;25.91;45.85
18569;BME280;14780;48.316;-1.050;2022-08-21T14:37:05;99197.28;;;25.84;45.93
18569;BME280;14780;48.316;-1.050;2022-08-21T14:39:50;99204.13;;;25.87;45.97
18569;BME280;14780;48.316;-1.050;2022-08-21T14:42:35;99204.44;;;25.80;46.13
18569;BME280;14780;48.316;-1.050;2022-08-21T14:45:28;99204.13;;;25.82;45.97
18569;BME280;14780;48.316;-1.050;2022-08-21T14:48:13;99201.97;;;25.79;46.04
18569;BME280;14780;48.316;-1.050;2022-08-21T14:50:58;99208.56;;;25.78;46.21
18569;BME280;14780;48.316;-1.050;2022-08-21T14:53:43;99207.72;;;25.82;46.00
18569;BME280;14780;48.316;-1.050;2022-08-21T14:56:28;99203.31;;;25.86;46.06
18569;BME280;14780;48.316;-1.050;2022-08-21T14:59:13;99194.53;;;25.89;46.17
18569;BME280;14780;48.316;-1.050;2022-08-21T15:01:58;99195.31;;;25.95;45.84
18569;BME280;14780;48.316;-1.050;2022-08-21T15:04:43;99186.50;;;26.03;45.97
18569;BME280;14780;48.316;-1.050;2022-08-21T15:07:28;99178.84;;;26.00;45.84
18569;BME280;14780;48.316;-1.050;2022-08-21T15:10:13;99171.19;;;25.97;45.71
18569;BME280;14780;48.316;-1.050;2022-08-21T15:12:58;99170.69;;;25.90;45.82
18569;BME280;14780;48.316;-1.050;2022-08-21T15:15:44;99173.97;;;25.87;45.96
18569;BME280;14780;48.316;-1.050;2022-08-21T15:18:30;99178.41;;;25.78;46.12
18569;BME280;14780;48.316;-1.050;2022-08-21T15:21:15;99181.41;;;25.76;46.11
18569;BME280;14780;48.316;-1.050;2022-08-21T15:24:00;99179.53;;;25.72;46.17
18569;BME280;14780;48.316;-1.050;2022-08-21T15:26:45;99177.91;;;25.71;45.98
18569;BME280;14780;48.316;-1.050;2022-08-21T15:29:31;99178.41;;;25.73;46.17
18569;BME280;14780;48.316;-1.050;2022-08-21T15:32:20;99168.56;;;25.72;46.07
18569;BME280;14780;48.316;-1.050;2022-08-21T15:35:08;99171.88;;;25.69;45.95
18569;BME280;14780;48.316;-1.050;2022-08-21T15:37:53;99162.56;;;25.65;46.25
18569;BME280;14780;48.316;-1.050;2022-08-21T15:40:37;99163.94;;;25.62;46.30
18569;BME280;14780;48.316;-1.050;2022-08-21T15:43:27;99164.78;;;25.63;46.20
18569;BME280;14780;48.316;-1.050;2022-08-21T15:46:14;99156.81;;;25.66;46.31
18569;BME280;14780;48.316;-1.050;2022-08-21T15:48:59;99151.88;;;25.63;46.23
18569;BME280;14780;48.316;-1.050;2022-08-21T15:51:44;99147.50;;;25.62;46.29
18569;BME280;14780;48.316;-1.050;2022-08-21T15:54:28;99155.19;;;25.60;46.16
18569;BME280;14780;48.316;-1.050;2022-08-21T15:57:21;99153.00;;;25.62;46.43